Time;durP1;ratioP1;P1;durP2;ratioP2;P2;SDS_P1;SDS_P2;PMS_P1;PMS_P2;Temp;Humidity;BMP_temperature;BMP_pressure;BME280_temperature;BME280_humidity;BME280_pressure;Samples;Min_cycle;Max_cycle;Signal;HPM_P1;HPM_P2
2022/10/11 00:00:53;;;;;;;0.10;0.10;;;;;;;;;;4890113;29;20044;-76
2022/10/11 00:03:20;;;;;;;0.20;0.20;;;;;;;;;;4909916;29;20444;-76
2022/10/11 00:05:46;;;;;;;0.10;0.10;;;;;;;;;;4893718;29;20064;-76
2022/10/11 00:08:12;;;;;;;0.10;0.10;;;;;;;;;;4911010;29;20048;-76
2022/10/11 00:10:42;;;;;;;0.10;0.10;;;;;;;;;;4895129;29;20055;-77
2022/10/11 00:13:08;;;;;;;0.20;0.20;;;;;;;;;;4893436;29;20055;-77
2022/10/11 00:15:34;;;;;;;0.10;0.10;;;;;;;;;;4893812;29;20052;-77
2022/10/11 00:18:00;;;;;;;0.20;0.20;;;;;;;;;;4910703;29;20048;-77
2022/10/11 00:20:29;;;;;;;0.20;0.20;;;;;;;;;;4897089;29;20036;-77
2022/10/11 00:22:55;;;;;;;0.10;0.10;;;;;;;;;;4894590;29;20044;-78
2022/10/11 00:25:21;;;;;;;0.20;0.20;;;;;;;;;;4919444;29;20127;-77
2022/10/11 00:27:47;;;;;;;0.17;0.17;;;;;;;;;;4894127;29;20056;-77
2022/10/11 00:30:13;;;;;;;0.15;0.15;;;;;;;;;;4910845;29;20065;-77
2022/10/11 00:32:39;;;;;;;0.10;0.10;;;;;;;;;;4893320;29;20126;-77
2022/10/11 00:35:06;;;;;;;0.10;0.10;;;;;;;;;;4892091;29;20052;-77
2022/10/11 00:37:34;;;;;;;0.20;0.20;;;;;;;;;;4893676;29;20056;-77
2022/10/11 00:40:00;;;;;;;0.20;0.20;;;;;;;;;;4894444;29;20409;-77
2022/10/11 00:42:26;;;;;;;0.20;0.20;;;;;;;;;;4893856;29;20052;-77
2022/10/11 00:45:12;;;;;;;0.20;0.20;;;;;;;;;;4895594;29;20044;-78
2022/10/11 00:47:40;;;;;;;0.20;0.20;;;;;;;;;;4907809;29;20056;-77
2022/10/11 00:50:09;;;;;;;0.20;0.20;;;;;;;;;;4907144;29;20156;-77
2022/10/11 00:52:41;;;;;;;0.10;0.10;;;;;;;;;;4913003;29;20056;-77
2022/10/11 00:55:10;;;;;;;0.10;0.10;;;;;;;;;;4909710;29;20040;-77
2022/10/11 00:57:38;;;;;;;0.10;0.10;;;;;;;;;;4910125;29;20698;-77
2022/10/11 01:00:06;;;;;;;0.10;0.10;;;;;;;;;;4893346;29;20044;-77
2022/10/11 01:02:35;;;;;;;0.20;0.20;;;;;;;;;;4894597;29;20529;-77
2022/10/11 01:05:06;;;;;;;0.10;0.10;;;;;;;;;;4913004;29;20043;-77
2022/10/11 01:07:36;;;;;;;0.20;0.20;;;;;;;;;;4910898;29;20567;-77
2022/10/11 01:10:05;;;;;;;0.20;0.20;;;;;;;;;;4894520;29;20051;-78
2022/10/11 01:12:31;;;;;;;0.20;0.20;;;;;;;;;;4897382;29;20520;-77
2022/10/11 01:15:21;;;;;;;0.20;0.20;;;;;;;;;;4898115;29;20040;-78
2022/10/11 01:17:55;;;;;;;0.20;0.20;;;;;;;;;;4914140;29;20060;-78
2022/10/11 01:20:40;;;;;;;0.20;0.20;;;;;;;;;;4898499;29;20052;-77
2022/10/11 01:23:25;;;;;;;0.10;0.10;;;;;;;;;;4890586;29;20048;-77
2022/10/11 01:26:06;;;;;;;0.10;0.10;;;;;;;;;;4899826;29;20151;-77
2022/10/11 01:28:41;;;;;;;0.20;0.20;;;;;;;;;;4914814;29;20044;-77
2022/10/11 01:31:18;;;;;;;0.20;0.20;;;;;;;;;;4918258;29;20059;-78
2022/10/11 01:33:49;;;;;;;0.20;0.20;;;;;;;;;;4899413;29;20546;-78
2022/10/11 01:36:18;;;;;;;0.20;0.20;;;;;;;;;;4915557;29;20052;-77
2022/10/11 01:38:53;;;;;;;0.17;0.17;;;;;;;;;;4894907;29;20083;-78
2022/10/11 01:41:27;;;;;;;0.20;0.20;;;;;;;;;;4897431;29;20044;-77
2022/10/11 01:43:56;;;;;;;0.20;0.20;;;;;;;;;;4897661;29;20060;-77
2022/10/11 01:46:23;;;;;;;0.10;0.10;;;;;;;;;;4913873;29;20087;-77
2022/10/11 01:49:00;;;;;;;0.20;0.20;;;;;;;;;;4894801;29;20066;-77
2022/10/11 01:51:32;;;;;;;0.20;0.20;;;;;;;;;;4894565;29;20063;-77
2022/10/11 01:54:10;;;;;;;0.15;0.15;;;;;;;;;;4908509;29;20517;-77
2022/10/11 01:56:42;;;;;;;0.20;0.20;;;;;;;;;;4909627;29;20060;-76
2022/10/11 01:59:08;;;;;;;0.20;0.20;;;;;;;;;;4895761;29;20103;-77
2022/10/11 02:01:55;;;;;;;0.20;0.20;;;;;;;;;;4895378;29;20044;-77
2022/10/11 02:04:27;;;;;;;0.10;0.10;;;;;;;;;;4889813;29;20040;-77
2022/10/11 02:06:58;;;;;;;0.20;0.20;;;;;;;;;;4899761;29;20619;-77
2022/10/11 02:09:30;;;;;;;0.20;0.20;;;;;;;;;;4894876;29;20095;-77
2022/10/11 02:11:58;;;;;;;0.20;0.20;;;;;;;;;;4894832;29;20107;-77
2022/10/11 02:14:31;;;;;;;0.20;0.20;;;;;;;;;;4895159;29;20044;-77
2022/10/11 02:17:02;;;;;;;0.10;0.10;;;;;;;;;;4913859;29;20097;-77
2022/10/11 02:19:32;;;;;;;0.10;0.10;;;;;;;;;;4896319;29;20056;-77
2022/10/11 02:22:03;;;;;;;0.20;0.20;;;;;;;;;;4896078;29;20508;-77
2022/10/11 02:24:31;;;;;;;0.20;0.20;;;;;;;;;;4898583;29;20188;-77
2022/10/11 02:26:58;;;;;;;0.20;0.20;;;;;;;;;;4896806;29;20052;-76
2022/10/11 02:29:27;;;;;;;0.20;0.20;;;;;;;;;;4910048;29;20048;-75
2022/10/11 02:31:54;;;;;;;0.20;0.20;;;;;;;;;;4929077;29;20499;-75
2022/10/11 02:34:21;;;;;;;0.10;0.10;;;;;;;;;;4903417;29;20488;-77
2022/10/11 02:37:06;;;;;;;0.20;0.20;;;;;;;;;;4910432;29;20067;-77
2022/10/11 02:39:39;;;;;;;0.20;0.20;;;;;;;;;;4912042;29;20044;-76
2022/10/11 02:42:09;;;;;;;0.20;0.20;;;;;;;;;;4895580;29;20473;-76
2022/10/11 02:44:37;;;;;;;0.20;0.20;;;;;;;;;;4892998;29;20666;-76
2022/10/11 02:47:03;;;;;;;0.20;0.20;;;;;;;;;;4893901;29;20044;-76
2022/10/11 02:49:31;;;;;;;0.20;0.20;;;;;;;;;;4910400;29;20058;-76
2022/10/11 02:52:00;;;;;;;0.20;0.20;;;;;;;;;;4911080;29;20415;-76
2022/10/11 02:54:26;;;;;;;0.20;0.20;;;;;;;;;;4893307;29;20067;-76
2022/10/11 02:56:52;;;;;;;0.20;0.20;;;;;;;;;;4892390;29;20052;-77
2022/10/11 02:59:18;;;;;;;0.20;0.20;;;;;;;;;;4895017;29;20048;-77
2022/10/11 03:01:44;;;;;;;0.20;0.20;;;;;;;;;;4892369;29;20554;-77
2022/10/11 03:04:10;;;;;;;0.20;0.20;;;;;;;;;;4892620;29;20047;-77
2022/10/11 03:06:39;;;;;;;0.20;0.20;;;;;;;;;;4903287;29;20048;-77
2022/10/11 03:09:05;;;;;;;0.20;0.20;;;;;;;;;;4895516;29;20473;-77
2022/10/11 03:11:31;;;;;;;0.20;0.20;;;;;;;;;;4894882;29;20040;-77
2022/10/11 03:13:57;;;;;;;0.20;0.20;;;;;;;;;;4895842;29;21865;-77
2022/10/11 03:16:23;;;;;;;0.10;0.10;;;;;;;;;;4895119;29;20194;-77
2022/10/11 03:18:49;;;;;;;0.20;0.20;;;;;;;;;;4909222;29;20048;-77
2022/10/11 03:21:17;;;;;;;0.20;0.20;;;;;;;;;;4893140;29;20068;-77
2022/10/11 03:23:43;;;;;;;0.20;0.20;;;;;;;;;;4893852;29;20056;-77
2022/10/11 03:26:09;;;;;;;0.10;0.10;;;;;;;;;;4898596;29;20051;-77
2022/10/11 03:28:35;;;;;;;0.17;0.17;;;;;;;;;;4907764;29;20128;-77
2022/10/11 03:31:01;;;;;;;0.20;0.20;;;;;;;;;;4910783;29;20043;-77
2022/10/11 03:33:27;;;;;;;0.20;0.20;;;;;;;;;;4892449;29;20052;-77
2022/10/11 03:35:53;;;;;;;0.20;0.20;;;;;;;;;;4895904;29;20043;-77
2022/10/11 03:38:21;;;;;;;0.20;0.20;;;;;;;;;;4894091;29;20048;-77
2022/10/11 03:40:47;;;;;;;0.20;0.20;;;;;;;;;;4911092;29;20056;-77
2022/10/11 03:43:13;;;;;;;0.20;0.20;;;;;;;;;;4894021;29;20048;-77
2022/10/11 03:45:43;;;;;;;0.20;0.20;;;;;;;;;;4911374;29;20044;-77
2022/10/11 03:48:09;;;;;;;0.20;0.20;;;;;;;;;;4890099;29;20868;-76
2022/10/11 03:50:35;;;;;;;0.20;0.20;;;;;;;;;;4910951;29;20099;-77
2022/10/11 03:53:02;;;;;;;0.20;0.20;;;;;;;;;;4910339;29;20052;-77
2022/10/11 03:55:30;;;;;;;0.20;0.20;;;;;;;;;;4895413;29;20138;-77
2022/10/11 03:57:56;;;;;;;0.20;0.20;;;;;;;;;;4911037;29;20047;-77
2022/10/11 04:00:22;;;;;;;0.20;0.20;;;;;;;;;;4894322;29;20051;-79
2022/10/11 04:02:48;;;;;;;0.20;0.20;;;;;;;;;;4891620;29;20078;-76
2022/10/11 04:05:15;;;;;;;0.20;0.20;;;;;;;;;;4897164;29;20040;-76
2022/10/11 04:07:43;;;;;;;0.20;0.20;;;;;;;;;;4898205;29;20136;-77
2022/10/11 04:10:09;;;;;;;0.15;0.15;;;;;;;;;;4900615;29;20050;-76
2022/10/11 04:12:37;;;;;;;0.20;0.20;;;;;;;;;;4915332;29;20044;-76
2022/10/11 04:15:04;;;;;;;0.20;0.20;;;;;;;;;;4920879;29;20099;-76
2022/10/11 04:17:30;;;;;;;0.20;0.20;;;;;;;;;;4920831;29;20044;-76
2022/10/11 04:19:56;;;;;;;0.20;0.20;;;;;;;;;;4894437;29;20059;-77
2022/10/11 04:22:22;;;;;;;0.20;0.20;;;;;;;;;;4895730;29;20130;-77
2022/10/11 04:24:48;;;;;;;0.20;0.20;;;;;;;;;;4915592;29;20474;-78
2022/10/11 04:27:14;;;;;;;0.20;0.20;;;;;;;;;;4911083;29;20412;-78
2022/10/11 04:29:40;;;;;;;0.20;0.20;;;;;;;;;;4894401;29;20051;-79
2022/10/11 04:32:06;;;;;;;0.20;0.20;;;;;;;;;;4911893;29;20048;-78
2022/10/11 04:34:35;;;;;;;0.20;0.20;;;;;;;;;;4890773;29;20139;-78
2022/10/11 04:37:01;;;;;;;0.20;0.20;;;;;;;;;;4909468;29;20052;-79
2022/10/11 04:39:27;;;;;;;0.10;0.10;;;;;;;;;;4894504;29;20183;-79
2022/10/11 04:41:53;;;;;;;0.10;0.10;;;;;;;;;;4912072;29;20102;-78
2022/10/11 04:44:19;;;;;;;0.20;0.20;;;;;;;;;;4890822;29;20481;-78
2022/10/11 04:46:45;;;;;;;0.20;0.20;;;;;;;;;;4914983;29;20103;-78
2022/10/11 04:49:11;;;;;;;0.20;0.20;;;;;;;;;;4911831;29;20052;-78
2022/10/11 04:51:37;;;;;;;0.17;0.17;;;;;;;;;;4898383;29;20548;-78
2022/10/11 04:54:03;;;;;;;0.20;0.20;;;;;;;;;;4900871;29;20059;-79
2022/10/11 04:56:29;;;;;;;0.20;0.20;;;;;;;;;;4897530;29;20048;-79
2022/10/11 04:58:55;;;;;;;0.20;0.20;;;;;;;;;;4914459;29;20044;-78
2022/10/11 05:01:21;;;;;;;0.22;0.22;;;;;;;;;;4896058;29;20075;-78
2022/10/11 05:03:48;;;;;;;0.20;0.20;;;;;;;;;;4912396;29;20072;-78
2022/10/11 05:06:16;;;;;;;0.20;0.20;;;;;;;;;;4920642;29;20100;-77
2022/10/11 05:08:42;;;;;;;0.20;0.20;;;;;;;;;;4904889;29;20099;-79
2022/10/11 05:11:10;;;;;;;0.20;0.20;;;;;;;;;;4914508;29;20528;-78
2022/10/11 05:13:37;;;;;;;0.20;0.20;;;;;;;;;;4911832;29;20052;-78
2022/10/11 05:16:03;;;;;;;0.20;0.20;;;;;;;;;;4894307;29;20051;-78
2022/10/11 05:18:29;;;;;;;0.20;0.20;;;;;;;;;;4912832;29;20096;-79
2022/10/11 05:21:03;;;;;;;0.20;0.20;;;;;;;;;;4898281;29;20044;-78
2022/10/11 05:23:30;;;;;;;0.20;0.20;;;;;;;;;;4898922;29;20055;-78
2022/10/11 05:25:56;;;;;;;0.20;0.20;;;;;;;;;;4897701;29;20143;-78
2022/10/11 05:28:22;;;;;;;0.20;0.20;;;;;;;;;;4899008;29;20048;-78
2022/10/11 05:30:51;;;;;;;0.20;0.20;;;;;;;;;;4894248;29;20108;-78
2022/10/11 05:33:21;;;;;;;0.20;0.20;;;;;;;;;;4895532;29;20056;-78
2022/10/11 05:35:47;;;;;;;0.20;0.20;;;;;;;;;;4898363;29;20057;-78
2022/10/11 05:38:13;;;;;;;0.10;0.10;;;;;;;;;;4915169;29;20047;-78
2022/10/11 05:40:45;;;;;;;0.20;0.20;;;;;;;;;;4916175;29;20050;-78
2022/10/11 05:43:11;;;;;;;0.20;0.20;;;;;;;;;;4899734;29;20051;-78
2022/10/11 05:45:41;;;;;;;0.20;0.20;;;;;;;;;;4898992;29;20761;-78
2022/10/11 05:48:07;;;;;;;0.20;0.20;;;;;;;;;;4914590;29;20051;-78
2022/10/11 05:50:34;;;;;;;0.20;0.20;;;;;;;;;;4913232;29;20044;-78
2022/10/11 05:53:00;;;;;;;0.20;0.20;;;;;;;;;;4897831;29;20087;-78
2022/10/11 05:55:26;;;;;;;0.20;0.20;;;;;;;;;;4914141;29;20086;-78
2022/10/11 05:57:56;;;;;;;0.10;0.10;;;;;;;;;;4906329;29;20088;-77
2022/10/11 06:00:23;;;;;;;0.20;0.20;;;;;;;;;;4932271;29;20096;-78
2022/10/11 06:02:49;;;;;;;0.10;0.10;;;;;;;;;;4899527;29;20055;-78
2022/10/11 06:05:16;;;;;;;0.20;0.20;;;;;;;;;;4897826;29;20041;-78
2022/10/11 06:07:45;;;;;;;0.20;0.20;;;;;;;;;;4897145;29;20056;-78
2022/10/11 06:10:11;;;;;;;0.20;0.20;;;;;;;;;;4913711;29;20064;-78
2022/10/11 06:12:37;;;;;;;0.20;0.20;;;;;;;;;;4896302;29;20051;-78
2022/10/11 06:15:05;;;;;;;0.20;0.20;;;;;;;;;;4895691;29;20051;-78
2022/10/11 06:17:52;;;;;;;0.20;0.20;;;;;;;;;;4897835;29;20056;-77
2022/10/11 06:20:18;;;;;;;0.20;0.20;;;;;;;;;;4894906;29;20052;-78
2022/10/11 06:22:50;;;;;;;0.20;0.20;;;;;;;;;;4892792;29;20044;-77
2022/10/11 06:25:16;;;;;;;0.20;0.20;;;;;;;;;;4913227;29;20123;-79
2022/10/11 06:27:42;;;;;;;0.20;0.20;;;;;;;;;;4896129;29;20520;-78
2022/10/11 06:30:08;;;;;;;0.20;0.20;;;;;;;;;;4911675;29;20040;-79
2022/10/11 06:32:34;;;;;;;0.20;0.20;;;;;;;;;;4895755;29;20052;-79
2022/10/11 06:35:02;;;;;;;0.20;0.20;;;;;;;;;;4892629;29;20055;-78
2022/10/11 06:37:31;;;;;;;0.20;0.20;;;;;;;;;;4913662;29;20105;-79
2022/10/11 06:39:57;;;;;;;0.20;0.20;;;;;;;;;;4895057;29;20125;-78
2022/10/11 06:42:23;;;;;;;0.20;0.20;;;;;;;;;;4896147;29;20100;-78
2022/10/11 06:44:49;;;;;;;0.20;0.20;;;;;;;;;;4899353;29;20056;-79
2022/10/11 06:47:15;;;;;;;0.20;0.20;;;;;;;;;;4897712;29;20048;-78
2022/10/11 06:49:44;;;;;;;0.10;0.10;;;;;;;;;;4911468;29;20056;-78
2022/10/11 06:52:10;;;;;;;0.20;0.20;;;;;;;;;;4895443;29;20139;-78
2022/10/11 06:54:36;;;;;;;0.20;0.20;;;;;;;;;;4911675;29;20188;-78
2022/10/11 06:57:02;;;;;;;0.13;0.13;;;;;;;;;;4895041;29;20479;-78
2022/10/11 06:59:28;;;;;;;0.17;0.17;;;;;;;;;;4910168;29;20173;-78
2022/10/11 07:01:54;;;;;;;0.20;0.20;;;;;;;;;;4912728;29;20505;-78
2022/10/11 07:04:20;;;;;;;0.20;0.20;;;;;;;;;;4926490;29;20122;-77
2022/10/11 07:06:46;;;;;;;0.20;0.20;;;;;;;;;;4910233;29;20056;-78
2022/10/11 07:09:12;;;;;;;0.20;0.20;;;;;;;;;;4893650;29;20040;-78
2022/10/11 07:11:38;;;;;;;0.20;0.20;;;;;;;;;;4892720;29;20083;-78
2022/10/11 07:14:06;;;;;;;0.20;0.20;;;;;;;;;;4911448;29;20047;-78
2022/10/11 07:16:33;;;;;;;0.20;0.20;;;;;;;;;;4908686;29;20413;-78
2022/10/11 07:19:00;;;;;;;0.20;0.20;;;;;;;;;;4910148;29;20552;-78
2022/10/11 07:21:26;;;;;;;0.20;0.20;;;;;;;;;;4894650;29;20417;-79
2022/10/11 07:23:52;;;;;;;0.20;0.20;;;;;;;;;;4905005;29;20051;-78
2022/10/11 07:26:18;;;;;;;0.10;0.10;;;;;;;;;;4894278;29;20044;-79
2022/10/11 07:28:45;;;;;;;0.20;0.20;;;;;;;;;;4912755;29;20040;-79
2022/10/11 07:31:14;;;;;;;0.20;0.20;;;;;;;;;;4911846;29;20107;-79
2022/10/11 07:33:40;;;;;;;0.10;0.10;;;;;;;;;;4891530;29;20060;-78
2022/10/11 07:36:07;;;;;;;0.20;0.20;;;;;;;;;;4919583;29;20075;-77
2022/10/11 07:38:33;;;;;;;0.10;0.10;;;;;;;;;;4915734;29;20119;-76
2022/10/11 07:40:59;;;;;;;0.10;0.10;;;;;;;;;;4914916;29;20493;-77
2022/10/11 07:43:25;;;;;;;0.13;0.13;;;;;;;;;;4932781;29;20040;-77
2022/10/11 07:45:55;;;;;;;0.20;0.20;;;;;;;;;;4923798;29;20467;-78
2022/10/11 07:48:24;;;;;;;0.10;0.10;;;;;;;;;;4896375;29;20051;-77
2022/10/11 07:50:50;;;;;;;0.17;0.17;;;;;;;;;;4908900;29;20046;-76
2022/10/11 07:53:16;;;;;;;0.10;0.10;;;;;;;;;;4913172;29;20110;-78
2022/10/11 07:55:42;;;;;;;0.13;0.13;;;;;;;;;;4897241;29;20550;-77
2022/10/11 07:58:09;;;;;;;0.10;0.10;;;;;;;;;;4902814;29;20055;-77
2022/10/11 08:00:41;;;;;;;0.10;0.10;;;;;;;;;;4900862;29;20428;-77
2022/10/11 08:03:13;;;;;;;0.10;0.10;;;;;;;;;;4903806;29;20110;-76
2022/10/11 08:05:39;;;;;;;0.20;0.20;;;;;;;;;;4922533;29;20056;-78
2022/10/11 08:08:05;;;;;;;0.20;0.20;;;;;;;;;;4915304;29;20044;-77
2022/10/11 08:10:36;;;;;;;0.20;0.20;;;;;;;;;;4923018;29;20187;-77
2022/10/11 08:13:02;;;;;;;0.20;0.20;;;;;;;;;;4913579;29;20055;-78
2022/10/11 08:15:29;;;;;;;0.20;0.20;;;;;;;;;;4928188;29;20052;-77
2022/10/11 08:17:57;;;;;;;0.20;0.20;;;;;;;;;;4896035;29;20047;-76
2022/10/11 08:20:23;;;;;;;0.20;0.20;;;;;;;;;;4911711;29;20043;-77
2022/10/11 08:22:49;;;;;;;0.20;0.20;;;;;;;;;;4896559;29;20139;-77
2022/10/11 08:25:18;;;;;;;0.10;0.10;;;;;;;;;;4894421;29;20131;-77
2022/10/11 08:27:44;;;;;;;0.13;0.13;;;;;;;;;;4893940;29;20064;-82
2022/10/11 08:30:10;;;;;;;0.17;0.17;;;;;;;;;;4911843;29;20056;-83
2022/10/11 08:32:36;;;;;;;0.20;0.20;;;;;;;;;;4909296;29;20048;-82
2022/10/11 08:35:02;;;;;;;0.20;0.20;;;;;;;;;;4890806;29;20055;-80
2022/10/11 08:37:29;;;;;;;0.10;0.10;;;;;;;;;;4892546;29;20044;-81
2022/10/11 08:39:57;;;;;;;0.20;0.20;;;;;;;;;;4894729;29;20046;-83
2022/10/11 08:42:29;;;;;;;0.20;0.20;;;;;;;;;;4915057;29;20054;-77
2022/10/11 08:44:58;;;;;;;0.10;0.10;;;;;;;;;;4911183;29;20044;-77
2022/10/11 08:47:33;;;;;;;0.10;0.10;;;;;;;;;;4908284;29;20123;-77
2022/10/11 08:49:59;;;;;;;0.20;0.20;;;;;;;;;;4899174;29;20056;-79
2022/10/11 08:52:45;;;;;;;0.20;0.20;;;;;;;;;;4899272;29;20428;-78
2022/10/11 08:55:25;;;;;;;0.10;0.10;;;;;;;;;;4911942;29;20052;-77
2022/10/11 08:57:54;;;;;;;0.17;0.17;;;;;;;;;;4899191;29;20063;-77
2022/10/11 09:00:23;;;;;;;0.20;0.20;;;;;;;;;;4894070;29;20230;-78
2022/10/11 09:03:08;;;;;;;0.20;0.20;;;;;;;;;;4898930;29;20059;-77
2022/10/11 09:05:35;;;;;;;0.10;0.10;;;;;;;;;;4906484;29;20048;-77
2022/10/11 09:08:04;;;;;;;0.10;0.10;;;;;;;;;;4895887;29;20058;-78
2022/10/11 09:10:33;;;;;;;0.10;0.10;;;;;;;;;;4920694;29;20044;-79
2022/10/11 09:12:59;;;;;;;0.15;0.15;;;;;;;;;;4894647;29;20041;-79
2022/10/11 09:15:38;;;;;;;0.20;0.20;;;;;;;;;;4913051;29;20135;-78
2022/10/11 09:18:13;;;;;;;0.20;0.20;;;;;;;;;;4894607;29;20520;-78
2022/10/11 09:20:48;;;;;;;0.20;0.20;;;;;;;;;;4910624;29;20086;-79
2022/10/11 09:23:49;;;;;;;0.20;0.20;;;;;;;;;;4895236;29;20554;-78
2022/10/11 09:26:21;;;;;;;0.22;0.22;;;;;;;;;;4925153;29;20111;-79
2022/10/11 09:29:26;;;;;;;0.10;0.10;;;;;;;;;;4911000;29;20087;-78
2022/10/11 09:31:53;;;;;;;0.20;0.20;;;;;;;;;;4871194;29;20052;-79
2022/10/11 09:34:21;;;;;;;0.20;0.20;;;;;;;;;;4881392;29;20059;-78
2022/10/11 09:36:57;;;;;;;0.10;0.10;;;;;;;;;;4885107;29;20070;-80
2022/10/11 09:39:23;;;;;;;0.20;0.20;;;;;;;;;;4922449;29;20955;-79
2022/10/11 09:41:59;;;;;;;0.20;0.20;;;;;;;;;;4907817;29;20071;-79
2022/10/11 09:44:26;;;;;;;0.20;0.20;;;;;;;;;;4908394;29;20051;-79
2022/10/11 09:46:53;;;;;;;0.10;0.10;;;;;;;;;;4902988;29;20048;-79
2022/10/11 09:49:21;;;;;;;0.20;0.20;;;;;;;;;;4905778;29;20048;-79
2022/10/11 09:51:51;;;;;;;0.20;0.20;;;;;;;;;;4905553;29;20078;-79
2022/10/11 09:54:18;;;;;;;0.20;0.20;;;;;;;;;;4898996;29;20056;-78
2022/10/11 09:56:45;;;;;;;0.10;0.10;;;;;;;;;;4915889;29;20044;-79
2022/10/11 09:59:30;;;;;;;0.20;0.20;;;;;;;;;;4909045;29;20060;-79
2022/10/11 10:02:17;;;;;;;0.20;0.20;;;;;;;;;;4919089;29;20079;-79
2022/10/11 10:05:02;;;;;;;0.20;0.20;;;;;;;;;;4899618;29;20076;-78
2022/10/11 10:07:29;;;;;;;0.10;0.10;;;;;;;;;;4905714;29;20063;-79
2022/10/11 10:09:55;;;;;;;0.10;0.10;;;;;;;;;;4907635;29;20055;-78
2022/10/11 10:12:23;;;;;;;0.20;0.20;;;;;;;;;;4901144;29;20054;-79
2022/10/11 10:15:05;;;;;;;0.20;0.20;;;;;;;;;;4894681;29;20036;-79
2022/10/11 10:17:31;;;;;;;0.10;0.10;;;;;;;;;;4897001;29;20059;-79
2022/10/11 10:19:59;;;;;;;0.20;0.20;;;;;;;;;;4911796;29;20055;-79
2022/10/11 10:22:30;;;;;;;0.10;0.10;;;;;;;;;;4910797;29;20711;-78
2022/10/11 10:24:57;;;;;;;0.20;0.20;;;;;;;;;;4908161;29;20091;-79
2022/10/11 10:27:24;;;;;;;0.10;0.10;;;;;;;;;;4920061;29;20678;-78
2022/10/11 10:30:05;;;;;;;0.10;0.10;;;;;;;;;;4906116;29;20123;-78
2022/10/11 10:32:42;;;;;;;0.15;0.15;;;;;;;;;;4903170;29;20048;-78
2022/10/11 10:35:12;;;;;;;0.20;0.20;;;;;;;;;;4897766;29;20043;-78
2022/10/11 10:37:42;;;;;;;0.10;0.10;;;;;;;;;;4899596;29;20135;-78
2022/10/11 10:40:10;;;;;;;0.13;0.13;;;;;;;;;;4927931;29;20044;-79
2022/10/11 10:42:36;;;;;;;0.10;0.10;;;;;;;;;;4916032;29;20044;-79
2022/10/11 10:45:02;;;;;;;0.20;0.20;;;;;;;;;;4918128;29;20042;-78
2022/10/11 10:47:38;;;;;;;0.20;0.20;;;;;;;;;;4914296;29;20044;-79
2022/10/11 10:50:25;;;;;;;0.20;0.20;;;;;;;;;;4899694;29;20040;-80
2022/10/11 10:53:09;;;;;;;0.20;0.20;;;;;;;;;;4900042;29;20382;-79
2022/10/11 10:55:46;;;;;;;0.20;0.20;;;;;;;;;;4922585;29;20063;-79
2022/10/11 10:58:31;;;;;;;0.20;0.20;;;;;;;;;;4904299;29;20058;-78
2022/10/11 11:01:10;;;;;;;0.20;0.20;;;;;;;;;;4905786;29;20055;-80
2022/10/11 11:03:42;;;;;;;0.20;0.20;;;;;;;;;;4908932;29;20543;-79
2022/10/11 11:06:11;;;;;;;0.20;0.20;;;;;;;;;;4912980;29;20055;-79
2022/10/11 11:09:00;;;;;;;0.10;0.10;;;;;;;;;;4913196;29;20062;-77
2022/10/11 11:11:47;;;;;;;0.10;0.10;;;;;;;;;;4913847;29;20047;-78
2022/10/11 11:14:29;;;;;;;0.20;0.20;;;;;;;;;;4907948;29;20048;-79
2022/10/11 11:16:55;;;;;;;0.20;0.20;;;;;;;;;;4890931;29;20504;-79
2022/10/11 11:19:33;;;;;;;0.20;0.20;;;;;;;;;;4904247;29;20047;-79
2022/10/11 11:22:05;;;;;;;0.13;0.13;;;;;;;;;;4922830;29;20052;-78
2022/10/11 11:24:41;;;;;;;0.10;0.10;;;;;;;;;;4920310;29;20039;-78
2022/10/11 11:27:30;;;;;;;0.20;0.20;;;;;;;;;;4905659;29;20104;-77
2022/10/11 11:29:56;;;;;;;0.13;0.13;;;;;;;;;;4907487;29;20085;-78
2022/10/11 11:32:38;;;;;;;0.10;0.10;;;;;;;;;;4901876;29;20050;-78
2022/10/11 11:35:24;;;;;;;0.20;0.20;;;;;;;;;;4918335;29;20036;-78
2022/10/11 11:37:52;;;;;;;0.20;0.20;;;;;;;;;;4892279;29;20457;-78
2022/10/11 11:40:21;;;;;;;0.10;0.10;;;;;;;;;;4912992;29;20451;-77
2022/10/11 11:42:55;;;;;;;0.10;0.10;;;;;;;;;;4915601;29;20459;-77
2022/10/11 11:45:23;;;;;;;0.20;0.20;;;;;;;;;;4921635;29;20059;-79
2022/10/11 11:47:56;;;;;;;0.20;0.20;;;;;;;;;;4894900;29;20064;-83
2022/10/11 11:50:23;;;;;;;0.20;0.20;;;;;;;;;;4903199;29;20083;-84
2022/10/11 11:52:55;;;;;;;0.20;0.20;;;;;;;;;;4880325;29;20139;-83
2022/10/11 11:55:24;;;;;;;0.20;0.20;;;;;;;;;;4869383;29;20137;-83
2022/10/11 11:58:11;;;;;;;0.20;0.20;;;;;;;;;;4880141;29;20059;-83
2022/10/11 12:00:45;;;;;;;0.10;0.10;;;;;;;;;;4877205;29;20117;-84
2022/10/11 12:03:16;;;;;;;0.20;0.20;;;;;;;;;;4874856;29;20079;-83
2022/10/11 12:06:01;;;;;;;0.17;0.17;;;;;;;;;;4881062;29;20056;-83
2022/10/11 12:08:29;;;;;;;0.15;0.15;;;;;;;;;;4875605;29;20631;-82
2022/10/11 12:10:58;;;;;;;0.10;0.10;;;;;;;;;;4882625;29;20048;-81
2022/10/11 12:13:33;;;;;;;0.20;0.20;;;;;;;;;;4880726;29;20097;-83
2022/10/11 12:16:12;;;;;;;0.20;0.20;;;;;;;;;;4866583;29;20509;-84
2022/10/11 12:18:51;;;;;;;0.20;0.20;;;;;;;;;;4863871;29;20478;-80
2022/10/11 12:21:31;;;;;;;0.20;0.20;;;;;;;;;;4872181;29;20129;-80
2022/10/11 12:23:59;;;;;;;0.20;0.20;;;;;;;;;;4867000;29;20064;-80
2022/10/11 12:26:28;;;;;;;0.20;0.20;;;;;;;;;;4867351;29;20053;-80
2022/10/11 12:29:14;;;;;;;0.13;0.13;;;;;;;;;;4870171;29;20048;-81
2022/10/11 12:31:40;;;;;;;0.17;0.17;;;;;;;;;;4879786;29;20048;-80
2022/10/11 12:34:09;;;;;;;0.20;0.20;;;;;;;;;;4877711;29;20053;-80
2022/10/11 12:36:39;;;;;;;0.20;0.20;;;;;;;;;;4890147;29;20048;-80
2022/10/11 12:39:21;;;;;;;0.20;0.20;;;;;;;;;;4882612;29;20136;-80
2022/10/11 12:41:50;;;;;;;0.20;0.20;;;;;;;;;;4887006;29;20056;-80
2022/10/11 12:44:26;;;;;;;0.20;0.20;;;;;;;;;;4882486;29;20049;-80
2022/10/11 12:46:52;;;;;;;0.20;0.20;;;;;;;;;;4876270;29;20053;-80
2022/10/11 12:49:22;;;;;;;0.10;0.10;;;;;;;;;;4885992;29;20048;-81
2022/10/11 12:52:00;;;;;;;0.20;0.20;;;;;;;;;;4874511;29;20053;-80
2022/10/11 12:54:37;;;;;;;0.20;0.20;;;;;;;;;;4942320;28;20047;-80
2022/10/11 12:57:22;;;;;;;0.20;0.20;;;;;;;;;;4915871;29;20052;-80
2022/10/11 12:59:48;;;;;;;0.20;0.20;;;;;;;;;;4893709;29;20044;-80
2022/10/11 13:02:38;;;;;;;0.20;0.20;;;;;;;;;;4893932;29;20059;-80
2022/10/11 13:05:06;;;;;;;0.20;0.20;;;;;;;;;;4906471;29;20512;-80
2022/10/11 13:07:33;;;;;;;0.20;0.20;;;;;;;;;;4896611;29;20288;-80
2022/10/11 13:09:59;;;;;;;0.20;0.20;;;;;;;;;;4897859;29;20095;-80
2022/10/11 13:12:26;;;;;;;0.20;0.20;;;;;;;;;;4912967;29;20493;-80
2022/10/11 13:15:04;;;;;;;0.20;0.20;;;;;;;;;;4894372;29;20058;-81
2022/10/11 13:17:34;;;;;;;0.20;0.20;;;;;;;;;;4896798;29;20055;-81
2022/10/11 13:20:06;;;;;;;0.20;0.20;;;;;;;;;;4889572;29;20044;-81
2022/10/11 13:22:39;;;;;;;0.20;0.20;;;;;;;;;;4910674;29;20348;-78
2022/10/11 13:25:06;;;;;;;0.20;0.20;;;;;;;;;;4914206;29;20071;-79
2022/10/11 13:27:32;;;;;;;0.10;0.10;;;;;;;;;;4925107;29;20048;-78
2022/10/11 13:30:02;;;;;;;0.20;0.20;;;;;;;;;;4896592;29;20107;-79
2022/10/11 13:32:29;;;;;;;0.20;0.20;;;;;;;;;;4894417;29;20044;-79
2022/10/11 13:35:01;;;;;;;0.20;0.20;;;;;;;;;;4904537;29;21805;-79
2022/10/11 13:37:28;;;;;;;0.20;0.20;;;;;;;;;;4907830;29;20496;-79
2022/10/11 13:39:55;;;;;;;0.20;0.20;;;;;;;;;;4895494;29;20059;-80
2022/10/11 13:42:29;;;;;;;0.20;0.20;;;;;;;;;;4912136;29;20052;-80
2022/10/11 13:44:55;;;;;;;0.20;0.20;;;;;;;;;;4892012;29;20061;-81
2022/10/11 13:47:24;;;;;;;0.20;0.20;;;;;;;;;;4912189;29;20048;-80
2022/10/11 13:50:17;;;;;;;0.20;0.20;;;;;;;;;;4910434;29;20535;-79
2022/10/11 13:52:49;;;;;;;0.20;0.20;;;;;;;;;;4892444;29;20082;-80
2022/10/11 13:55:26;;;;;;;0.20;0.20;;;;;;;;;;4894096;29;20516;-80
2022/10/11 13:57:53;;;;;;;0.20;0.20;;;;;;;;;;4911469;29;20429;-79
2022/10/11 14:00:24;;;;;;;0.20;0.20;;;;;;;;;;4913337;29;20051;-79
2022/10/11 14:03:04;;;;;;;0.20;0.20;;;;;;;;;;4918623;29;20064;-80
2022/10/11 14:05:36;;;;;;;0.20;0.20;;;;;;;;;;4888093;29;20048;-80
2022/10/11 14:08:02;;;;;;;;;;;;;;;;;;4894692;29;20496;-80
2022/10/11 14:10:28;;;;;;;0.20;0.20;;;;;;;;;;4888611;29;19960;-80
2022/10/11 14:13:01;;;;;;;0.20;0.20;;;;;;;;;;4906273;29;20051;-80
2022/10/11 14:15:37;;;;;;;0.20;0.20;;;;;;;;;;4891420;29;20067;-80
2022/10/11 14:18:22;;;;;;;0.20;0.20;;;;;;;;;;4886601;29;20170;-81
2022/10/11 14:20:48;;;;;;;0.20;0.20;;;;;;;;;;4890738;29;20044;-81
2022/10/11 14:23:14;;;;;;;0.10;0.10;;;;;;;;;;4909673;29;20060;-81
2022/10/11 14:25:40;;;;;;;0.13;0.13;;;;;;;;;;4904453;29;20489;-81
2022/10/11 14:28:10;;;;;;;0.20;0.20;;;;;;;;;;4892377;29;20901;-80
2022/10/11 14:30:36;;;;;;;0.20;0.20;;;;;;;;;;4896308;29;20044;-81
2022/10/11 14:33:02;;;;;;;0.20;0.20;;;;;;;;;;4908338;29;20063;-80
2022/10/11 14:35:30;;;;;;;0.10;0.10;;;;;;;;;;4931458;29;20076;-81
2022/10/11 14:37:57;;;;;;;0.17;0.17;;;;;;;;;;4930246;29;20059;-78
2022/10/11 14:40:27;;;;;;;0.15;0.15;;;;;;;;;;4901347;29;20043;-79
2022/10/11 14:42:54;;;;;;;0.10;0.10;;;;;;;;;;4896660;29;20067;-81
2022/10/11 14:45:20;;;;;;;0.10;0.10;;;;;;;;;;4914543;29;20092;-82
2022/10/11 14:47:47;;;;;;;0.10;0.10;;;;;;;;;;4913812;29;20051;-81
2022/10/11 14:50:15;;;;;;;0.20;0.20;;;;;;;;;;4894029;29;20048;-80
2022/10/11 14:52:41;;;;;;;0.20;0.20;;;;;;;;;;4896267;29;20072;-81
2022/10/11 14:55:07;;;;;;;0.10;0.10;;;;;;;;;;4893782;29;20071;-81
2022/10/11 14:57:33;;;;;;;0.10;0.10;;;;;;;;;;4908214;29;20048;-81
2022/10/11 14:59:59;;;;;;;0.10;0.10;;;;;;;;;;4904194;29;20444;-82